Time;durP1;ratioP1;P1;durP2;ratioP2;P2;SDS_P1;SDS_P2;PMS_P1;PMS_P2;Temp;Humidity;BMP_temperature;BMP_pressure;BME280_temperature;BME280_humidity;BME280_pressure;Samples;Min_cycle;Max_cycle;Signal;HPM_P1;HPM_P2
2023/05/07 00:00:21;;;;;;;7.72;5.15;;;1.60;83.40;;;;;;5085097;28;20116;-81
2023/05/07 00:02:47;;;;;;;6.72;4.95;;;1.60;83.40;;;;;;5109660;28;20685;-83
2023/05/07 00:05:13;;;;;;;7.15;4.68;;;1.50;83.60;;;;;;5096272;28;20024;-82
2023/05/07 00:07:40;;;;;;;7.95;4.50;;;1.60;83.60;;;;;;5094836;28;20020;-81
2023/05/07 00:10:09;;;;;;;8.38;6.05;;;1.50;83.60;;;;;;5077472;28;20020;-83
2023/05/07 00:12:35;;;;;;;6.65;5.00;;;1.50;83.80;;;;;;5101892;28;20058;-83
2023/05/07 00:15:05;;;;;;;7.38;4.70;;;1.40;83.90;;;;;;5100837;28;20051;-81
2023/05/07 00:17:32;;;;;;;7.47;4.45;;;1.40;84.30;;;;;;5109403;28;20039;-82
2023/05/07 00:19:58;;;;;;;10.77;5.18;;;1.40;84.40;;;;;;5089410;28;20034;-82
2023/05/07 00:22:24;;;;;;;8.10;5.05;;;1.30;84.40;;;;;;5105784;28;20036;-81
2023/05/07 00:24:50;;;;;;;8.60;5.38;;;1.30;84.30;;;;;;5100984;28;20108;-80
2023/05/07 00:27:16;;;;;;;6.85;4.53;;;1.30;84.60;;;;;;5118050;28;20080;-81
2023/05/07 00:29:42;;;;;;;9.55;5.28;;;1.30;84.80;;;;;;5121549;28;20051;-81
2023/05/07 00:32:08;;;;;;;7.93;5.22;;;1.30;84.90;;;;;;5122037;28;20032;-82
2023/05/07 00:34:34;;;;;;;7.47;4.50;;;1.30;85.20;;;;;;5097713;28;20032;-81
2023/05/07 00:37:01;;;;;;;8.57;4.57;;;1.20;85.00;;;;;;5101916;28;20098;-82
2023/05/07 00:39:27;;;;;;;8.90;5.45;;;1.20;85.30;;;;;;5103512;28;20031;-82
2023/05/07 00:41:53;;;;;;;6.25;4.85;;;1.20;85.50;;;;;;5099350;28;20055;-80
2023/05/07 00:44:19;;;;;;;7.38;5.35;;;1.20;85.70;;;;;;5107786;28;20023;-81
2023/05/07 00:46:48;;;;;;;7.70;5.15;;;1.20;85.70;;;;;;5111635;28;20534;-81
2023/05/07 00:49:14;;;;;;;7.22;5.05;;;1.20;85.70;;;;;;5097059;28;20027;-82
2023/05/07 00:51:40;;;;;;;6.68;4.85;;;1.20;85.90;;;;;;5095833;28;20024;-81
2023/05/07 00:54:06;;;;;;;8.40;4.65;;;1.20;86.00;;;;;;5099846;28;20042;-80
2023/05/07 00:56:32;;;;;;;7.45;5.35;;;1.10;86.00;;;;;;5103989;28;20020;-81
2023/05/07 00:58:58;;;;;;;8.23;4.25;;;1.10;86.30;;;;;;5113666;28;20099;-81
2023/05/07 01:01:26;;;;;;;7.22;4.93;;;1.10;86.30;;;;;;5090110;28;20084;-82
2023/05/07 01:03:52;;;;;;;6.72;4.53;;;1.10;86.30;;;;;;5117178;28;20024;-81
2023/05/07 01:06:19;;;;;;;4.30;3.85;;;1.10;86.40;;;;;;5124244;28;20034;-81
2023/05/07 01:08:45;;;;;;;8.07;4.87;;;1.00;86.50;;;;;;5112585;28;20016;-81
2023/05/07 01:11:12;;;;;;;6.68;4.60;;;1.00;86.60;;;;;;5106576;28;20043;-81
2023/05/07 01:13:38;;;;;;;4.97;4.18;;;1.00;86.70;;;;;;5112923;28;20026;-81
2023/05/07 01:16:05;;;;;;;7.90;5.22;;;1.00;86.90;;;;;;5097540;28;20059;-81
2023/05/07 01:18:31;;;;;;;8.98;4.72;;;1.00;86.80;;;;;;5115793;28;20034;-81
2023/05/07 01:20:59;;;;;;;6.70;5.47;;;0.90;87.00;;;;;;5098442;28;20040;-80
2023/05/07 01:23:27;;;;;;;10.68;6.05;;;0.90;87.10;;;;;;5113252;28;20103;-81
2023/05/07 01:25:54;;;;;;;7.15;5.60;;;0.90;87.30;;;;;;5110635;28;20108;-81
2023/05/07 01:28:20;;;;;;;9.37;5.53;;;0.80;87.30;;;;;;5112716;28;20047;-81
2023/05/07 01:30:56;;;;;;;8.20;5.68;;;0.80;87.40;;;;;;5115149;28;20048;-82
2023/05/07 01:33:22;;;;;;;13.73;6.45;;;0.80;87.70;;;;;;5104246;28;20031;-81
2023/05/07 01:35:52;;;;;;;7.03;5.72;;;0.80;87.70;;;;;;5107316;28;20035;-81
2023/05/07 01:38:20;;;;;;;8.50;6.03;;;0.70;88.30;;;;;;5106786;28;20034;-81
2023/05/07 01:40:47;;;;;;;9.02;5.28;;;0.80;88.40;;;;;;5114105;28;20031;-82
2023/05/07 01:43:13;;;;;;;12.13;5.95;;;0.80;88.40;;;;;;5112471;28;20432;-81
2023/05/07 01:45:40;;;;;;;7.13;5.22;;;0.80;88.40;;;;;;5108634;28;20034;-82
2023/05/07 01:48:08;;;;;;;7.72;6.03;;;0.80;88.60;;;;;;5080034;28;20389;-82
2023/05/07 01:50:35;;;;;;;7.50;5.72;;;0.80;88.60;;;;;;5088370;28;20503;-81
2023/05/07 01:53:02;;;;;;;8.20;6.20;;;0.80;88.70;;;;;;5099323;28;20023;-83
2023/05/07 01:55:28;;;;;;;5.55;4.18;;;0.80;88.80;;;;;;5097827;28;20441;-81
2023/05/07 01:57:54;;;;;;;9.48;5.38;;;0.80;88.70;;;;;;5094318;28;20099;-81
2023/05/07 02:00:20;;;;;;;10.20;5.95;;;0.80;88.90;;;;;;5101638;28;20449;-81
2023/05/07 02:02:46;;;;;;;7.28;4.88;;;0.80;89.00;;;;;;5098188;28;20078;-82
2023/05/07 02:05:12;;;;;;;8.75;5.68;;;0.80;89.00;;;;;;5093222;28;20051;-81
2023/05/07 02:07:37;;;;;;;7.32;5.65;;;0.90;88.90;;;;;;5096473;28;20492;-81
2023/05/07 02:10:04;;;;;;;9.73;6.35;;;0.90;88.80;;;;;;5093100;28;20025;-81
2023/05/07 02:12:30;;;;;;;8.77;5.93;;;0.90;88.80;;;;;;5093219;28;20077;-82
2023/05/07 02:14:56;;;;;;;11.40;6.68;;;0.90;88.70;;;;;;5076095;28;20024;-82
2023/05/07 02:17:22;;;;;;;10.35;6.35;;;1.00;88.80;;;;;;5106048;28;20023;-82
2023/05/07 02:19:48;;;;;;;10.95;6.72;;;1.00;88.80;;;;;;5094151;28;20046;-82
2023/05/07 02:22:14;;;;;;;12.15;6.50;;;1.00;88.80;;;;;;5105789;28;20404;-82
2023/05/07 02:24:39;;;;;;;9.68;6.72;;;1.00;88.90;;;;;;5100001;28;20016;-80
2023/05/07 02:27:05;;;;;;;7.63;5.80;;;1.10;88.90;;;;;;5103333;28;20512;-81
2023/05/07 02:29:31;;;;;;;10.52;5.97;;;1.10;88.70;;;;;;5105538;28;20380;-80
2023/05/07 02:31:57;;;;;;;12.38;4.88;;;1.10;88.50;;;;;;5105018;28;20027;-83
2023/05/07 02:34:23;;;;;;;10.27;5.25;;;1.20;88.40;;;;;;5110123;28;20020;-81
2023/05/07 02:36:49;;;;;;;7.45;5.28;;;1.20;88.30;;;;;;5087016;28;20024;-80
2023/05/07 02:39:15;;;;;;;6.70;4.93;;;1.30;88.30;;;;;;5102062;28;20020;-81
2023/05/07 02:41:41;;;;;;;10.95;6.20;;;1.40;87.90;;;;;;5103362;28;20429;-81
2023/05/07 02:44:07;;;;;;;8.32;5.60;;;1.50;87.70;;;;;;5094756;28;20017;-81
2023/05/07 02:46:33;;;;;;;10.63;5.88;;;1.50;87.60;;;;;;5105421;28;20024;-80
2023/05/07 02:48:59;;;;;;;10.68;5.82;;;1.60;87.30;;;;;;5109861;28;20400;-80
2023/05/07 02:51:26;;;;;;;9.40;5.82;;;1.60;86.80;;;;;;5105597;28;20020;-81
2023/05/07 02:53:52;;;;;;;9.85;5.45;;;1.70;86.60;;;;;;5108341;28;20035;-79
2023/05/07 02:56:18;;;;;;;8.25;5.50;;;1.70;86.50;;;;;;5105731;28;20047;-82
2023/05/07 02:58:44;;;;;;;8.57;5.22;;;1.70;86.50;;;;;;5086984;28;20030;-81
2023/05/07 03:01:10;;;;;;;12.23;7.03;;;1.80;86.20;;;;;;5105247;28;20079;-80
2023/05/07 03:03:36;;;;;;;9.48;6.05;;;1.80;86.00;;;;;;5096693;28;20016;-81
2023/05/07 03:06:02;;;;;;;9.40;6.40;;;1.80;86.00;;;;;;5095976;28;20431;-83
2023/05/07 03:08:28;;;;;;;8.85;6.07;;;1.90;85.80;;;;;;5090589;28;20023;-80
2023/05/07 03:10:54;;;;;;;8.23;5.72;;;1.90;85.70;;;;;;5106033;28;20024;-80
2023/05/07 03:13:20;;;;;;;7.03;6.10;;;1.90;85.50;;;;;;5117506;28;20028;-81
2023/05/07 03:15:46;;;;;;;9.43;5.45;;;1.90;85.50;;;;;;5088510;28;20020;-82
2023/05/07 03:18:11;;;;;;;13.65;7.20;;;2.00;85.50;;;;;;5125010;28;20073;-82
2023/05/07 03:20:37;;;;;;;9.07;5.82;;;2.10;85.10;;;;;;5114432;28;20023;-79
2023/05/07 03:23:03;;;;;;;9.15;7.43;;;2.10;85.00;;;;;;5112943;28;20083;-81
2023/05/07 03:25:32;;;;;;;8.65;6.72;;;2.20;85.10;;;;;;5114529;28;20445;-81
2023/05/07 03:27:58;;;;;;;6.63;5.45;;;2.30;84.70;;;;;;5110716;28;20016;-81
2023/05/07 03:30:24;;;;;;;7.95;5.65;;;2.30;84.20;;;;;;5110364;28;20370;-81
2023/05/07 03:32:50;;;;;;;6.70;5.45;;;2.40;83.70;;;;;;5108687;28;20495;-82
2023/05/07 03:35:16;;;;;;;9.68;7.07;;;2.40;83.40;;;;;;5111989;28;20039;-80
2023/05/07 03:37:42;;;;;;;8.10;6.70;;;2.50;83.20;;;;;;5098456;28;20101;-80
2023/05/07 03:40:10;;;;;;;7.97;5.63;;;2.50;83.10;;;;;;5099478;28;20036;-82
2023/05/07 03:42:36;;;;;;;8.05;5.65;;;2.50;82.60;;;;;;5107258;28;20031;-81
2023/05/07 03:45:02;;;;;;;7.90;5.60;;;2.60;82.40;;;;;;5091110;28;20016;-81
2023/05/07 03:47:28;;;;;;;6.07;4.85;;;2.50;82.10;;;;;;5114912;28;20402;-81
2023/05/07 03:49:54;;;;;;;8.50;5.60;;;2.50;81.80;;;;;;5107039;28;20077;-82
2023/05/07 03:52:24;;;;;;;8.27;5.35;;;2.50;81.70;;;;;;5110704;28;20020;-81
2023/05/07 03:54:50;;;;;;;8.90;5.40;;;2.60;81.80;;;;;;5098285;28;20024;-81
2023/05/07 03:57:16;;;;;;;7.50;4.32;;;2.70;81.40;;;;;;5109419;28;20023;-83
2023/05/07 03:59:42;;;;;;;7.43;4.32;;;2.70;81.00;;;;;;5106589;28;20046;-81
2023/05/07 04:02:07;;;;;;;12.18;4.88;;;2.80;80.70;;;;;;5106850;28;20055;-81
2023/05/07 04:04:33;;;;;;;7.15;4.85;;;2.90;80.50;;;;;;5109136;28;20524;-79
2023/05/07 04:07:00;;;;;;;6.97;4.97;;;2.90;80.20;;;;;;5112693;28;20102;-81
2023/05/07 04:09:26;;;;;;;6.53;4.23;;;3.00;79.50;;;;;;5122189;28;20069;-81
2023/05/07 04:11:52;;;;;;;6.25;3.85;;;3.00;79.70;;;;;;5123307;28;20027;-82
2023/05/07 04:14:17;;;;;;;7.97;4.65;;;3.10;79.40;;;;;;5112106;28;20052;-80
2023/05/07 04:16:43;;;;;;;7.20;4.13;;;3.20;78.80;;;;;;5077376;28;20058;-80
2023/05/07 04:19:09;;;;;;;5.95;4.25;;;3.30;79.40;;;;;;5094595;28;20095;-82
2023/05/07 04:21:35;;;;;;;8.88;5.47;;;3.30;78.50;;;;;;5100652;28;20059;-81
2023/05/07 04:24:03;;;;;;;6.30;3.92;;;3.40;78.30;;;;;;5102504;28;20027;-81
2023/05/07 04:26:29;;;;;;;6.45;4.30;;;3.50;78.00;;;;;;5114084;28;20472;-80
2023/05/07 04:28:55;;;;;;;5.47;3.70;;;3.60;77.50;;;;;;5113956;28;20024;-78
2023/05/07 04:31:21;;;;;;;5.63;3.63;;;3.60;76.40;;;;;;5115583;28;20019;-82
2023/05/07 04:33:46;;;;;;;5.93;3.63;;;3.60;76.30;;;;;;5123459;28;20453;-83
2023/05/07 04:36:12;;;;;;;8.07;4.40;;;3.60;76.00;;;;;;5106700;28;20027;-84
2023/05/07 04:38:38;;;;;;;5.72;4.15;;;3.60;75.80;;;;;;5103660;28;20043;-84
2023/05/07 04:41:05;;;;;;;7.03;3.35;;;3.70;76.00;;;;;;5096796;28;20097;-84
2023/05/07 04:43:31;;;;;;;5.93;3.70;;;3.70;75.80;;;;;;5105914;28;20153;-83
2023/05/07 04:45:58;;;;;;;4.20;2.88;;;3.70;75.70;;;;;;5112018;28;20028;-82
2023/05/07 04:48:23;;;;;;;8.52;3.53;;;4.00;75.40;;;;;;5107557;28;20488;-83
2023/05/07 04:50:50;;;;;;;5.70;3.85;;;4.60;74.30;;;;;;5109645;28;20039;-82
2023/05/07 04:53:17;;;;;;;8.02;3.63;;;5.40;72.80;;;;;;5105331;28;20496;-80
2023/05/07 04:55:43;;;;;;;6.72;4.30;;;6.40;68.30;;;;;;5109392;28;20420;-82
2023/05/07 04:58:09;;;;;;;5.05;3.50;;;7.00;65.80;;;;;;5104126;28;20048;-81
2023/05/07 05:00:35;;;;;;;5.07;3.50;;;7.70;63.40;;;;;;5108318;28;20132;-83
2023/05/07 05:03:01;;;;;;;4.95;3.63;;;8.30;61.60;;;;;;5079858;28;20469;-80
2023/05/07 05:05:27;;;;;;;7.18;4.18;;;9.10;60.50;;;;;;5104103;28;20099;-80
2023/05/07 05:07:53;;;;;;;3.95;3.45;;;9.70;57.90;;;;;;5087566;28;20350;-83
2023/05/07 05:10:19;;;;;;;6.47;3.67;;;9.70;55.50;;;;;;5101974;28;20024;-82
2023/05/07 05:12:45;;;;;;;4.93;3.47;;;9.90;55.60;;;;;;5097192;28;20526;-82
2023/05/07 05:15:12;;;;;;;6.07;3.42;;;10.40;54.90;;;;;;5110672;28;20035;-84
2023/05/07 05:17:39;;;;;;;4.88;3.42;;;11.20;53.00;;;;;;5112376;28;20016;-82
2023/05/07 05:20:05;;;;;;;7.30;3.88;;;11.60;51.30;;;;;;5112662;28;20015;-82
2023/05/07 05:22:32;;;;;;;3.93;3.53;;;12.10;50.40;;;;;;5107187;28;20074;-84
2023/05/07 05:24:58;;;;;;;4.60;3.58;;;11.60;49.20;;;;;;5083959;28;20068;-83
2023/05/07 05:27:24;;;;;;;3.67;2.72;;;10.70;51.10;;;;;;5112669;28;20023;-81
2023/05/07 05:29:49;;;;;;;3.47;2.83;;;10.60;51.30;;;;;;5097656;28;20011;-81
2023/05/07 05:32:15;;;;;;;3.80;2.67;;;11.20;51.00;;;;;;5110313;28;20034;-82
2023/05/07 05:34:41;;;;;;;4.28;2.85;;;11.40;48.50;;;;;;5107688;28;20020;-84
2023/05/07 05:37:07;;;;;;;3.38;2.97;;;11.70;49.60;;;;;;5098590;28;20024;-83
2023/05/07 05:39:33;;;;;;;4.95;2.78;;;11.60;48.20;;;;;;5101252;28;20551;-83
2023/05/07 05:41:59;;;;;;;4.82;3.10;;;12.00;48.70;;;;;;5101167;28;20032;-83
2023/05/07 05:44:25;;;;;;;3.28;2.10;;;12.10;46.50;;;;;;5104633;28;20016;-83
2023/05/07 05:46:51;;;;;;;3.65;2.42;;;;;;;;;;5102493;28;20016;-83
2023/05/07 05:49:17;;;;;;;3.83;2.25;;;12.50;47.50;;;;;;5093856;28;20035;-82
2023/05/07 05:51:43;;;;;;;3.47;2.25;;;14.40;41.70;;;;;;5112274;28;20080;-82
2023/05/07 05:54:09;;;;;;;4.22;2.85;;;13.70;42.10;;;;;;5098605;28;20028;-84
2023/05/07 05:56:36;;;;;;;3.60;2.47;;;12.30;43.40;;;;;;5097137;28;20031;-83
2023/05/07 05:59:02;;;;;;;3.70;2.30;;;11.30;45.10;;;;;;5102421;28;20020;-84
2023/05/07 06:01:27;;;;;;;3.45;2.40;;;10.90;45.90;;;;;;5106571;28;20492;-84
2023/05/07 06:03:55;;;;;;;3.38;2.60;;;11.30;46.80;;;;;;5081435;28;20093;-84
2023/05/07 06:06:21;;;;;;;7.30;2.67;;;12.40;44.40;;;;;;5075761;28;20024;-84
2023/05/07 06:08:47;;;;;;;4.32;3.30;;;11.80;44.40;;;;;;5105087;28;20026;-84
2023/05/07 06:11:13;;;;;;;5.22;3.65;;;10.90;46.50;;;;;;5096406;28;20037;-84
2023/05/07 06:13:39;;;;;;;4.03;2.47;;;12.10;47.50;;;;;;5102795;28;20447;-81
2023/05/07 06:16:05;;;;;;;3.67;2.30;;;13.90;43.70;;;;;;5104357;28;20055;-83
2023/05/07 06:18:31;;;;;;;5.75;2.78;;;13.90;42.20;;;;;;5107562;28;20073;-84
2023/05/07 06:20:57;;;;;;;4.10;2.70;;;12.60;42.80;;;;;;5103967;28;20469;-83
2023/05/07 06:23:23;;;;;;;4.38;2.65;;;11.90;44.40;;;;;;5099902;28;20023;-84
2023/05/07 06:25:50;;;;;;;4.40;2.75;;;12.80;44.70;;;;;;5095168;28;20085;-83
2023/05/07 06:28:16;;;;;;;4.00;2.40;;;12.80;42.80;;;;;;5107993;28;20023;-84
2023/05/07 06:30:42;;;;;;;3.80;2.35;;;11.50;44.10;;;;;;5096159;28;20024;-83
2023/05/07 06:33:08;;;;;;;5.25;2.70;;;10.40;45.80;;;;;;5107447;28;20027;-84
2023/05/07 06:35:34;;;;;;;3.78;2.67;;;11.30;47.00;;;;;;5102696;28;20028;-84
2023/05/07 06:38:00;;;;;;;4.45;2.60;;;12.20;44.60;;;;;;5099138;28;20051;-86
2023/05/07 06:40:26;;;;;;;3.22;2.42;;;12.00;44.50;;;;;;5092457;28;20149;-83
2023/05/07 06:42:52;;;;;;;2.88;2.55;;;11.70;44.90;;;;;;5101726;28;20058;-87
2023/05/07 06:45:19;;;;;;;3.88;2.22;;;11.40;44.80;;;;;;5086873;28;20040;-86
2023/05/07 06:47:45;;;;;;;2.63;2.43;;;12.20;45.70;;;;;;5094809;28;20028;-84
2023/05/07 06:50:10;;;;;;;2.58;2.20;;;13.80;43.00;;;;;;5097997;28;20603;-85
2023/05/07 06:52:36;;;;;;;3.45;2.30;;;15.40;40.90;;;;;;5097460;28;20085;-84
2023/05/07 06:55:02;;;;;;;3.42;2.20;;;17.60;38.50;;;;;;5109732;28;20019;-86
2023/05/07 06:57:28;;;;;;;4.20;2.30;;;18.50;35.80;;;;;;5102438;28;20028;-85
2023/05/07 06:59:54;;;;;;;3.72;1.92;;;18.40;34.30;;;;;;5110869;28;20055;-83
2023/05/07 07:02:20;;;;;;;4.10;2.50;;;16.50;34.70;;;;;;5088831;28;20088;-83
2023/05/07 07:04:46;;;;;;;3.45;2.47;;;14.50;37.10;;;;;;5090442;28;20025;-85
2023/05/07 07:07:12;;;;;;;2.95;1.95;;;13.00;39.00;;;;;;5108200;28;20048;-83
2023/05/07 07:09:38;;;;;;;3.13;2.00;;;11.70;40.40;;;;;;5105784;28;20869;-85
2023/05/07 07:12:04;;;;;;;5.90;2.58;;;10.90;42.50;;;;;;5093780;28;20503;-85
2023/05/07 07:14:30;;;;;;;3.63;2.13;;;11.10;43.20;;;;;;5092037;28;20481;-84
2023/05/07 07:16:55;;;;;;;2.90;2.50;;;13.40;42.00;;;;;;5092985;28;20031;-87
2023/05/07 07:19:22;;;;;;;3.97;1.90;;;14.80;38.80;;;;;;5107157;28;20037;-85
2023/05/07 07:21:48;;;;;;;3.22;2.15;;;14.30;36.90;;;;;;5094366;28;20122;-85
2023/05/07 07:24:20;;;;;;;3.72;1.90;;;13.20;38.00;;;;;;5096879;28;20479;-87
2023/05/07 07:26:47;;;;;;;3.38;1.90;;;12.20;39.50;;;;;;5092312;28;20070;-87
2023/05/07 07:29:13;;;;;;;1.98;1.58;;;12.10;40.40;;;;;;5114273;28;20381;-87
2023/05/07 07:31:39;;;;;;;4.32;2.03;;;12.00;39.50;;;;;;5105247;28;20028;-90
2023/05/07 07:34:05;;;;;;;4.72;2.28;;;11.70;39.50;;;;;;5075424;28;20028;-87
2023/05/07 07:36:31;;;;;;;7.35;2.47;;;11.90;40.30;;;;;;5093120;28;20044;-87
2023/05/07 07:38:56;;;;;;;2.88;1.98;;;13.90;39.80;;;;;;5102992;28;20055;-86
2023/05/07 07:41:22;;;;;;;2.42;1.70;;;16.70;36.00;;;;;;5109144;28;20055;-89
2023/05/07 07:43:48;;;;;;;6.10;1.75;;;17.90;33.30;;;;;;5093480;28;20080;-88
2023/05/07 07:46:14;;;;;;;6.70;2.30;;;17.20;32.00;;;;;;5117204;28;20056;-84
2023/05/07 07:48:40;;;;;;;2.78;1.63;;;15.80;33.60;;;;;;5129570;28;20012;-89
2023/05/07 07:51:06;;;;;;;5.30;2.47;;;14.70;34.20;;;;;;5107433;28;20038;-81
2023/05/07 07:53:31;;;;;;;2.67;1.70;;;14.00;35.50;;;;;;5107952;28;20365;-80
2023/05/07 07:55:57;;;;;;;3.65;1.95;;;15.00;34.60;;;;;;5103248;28;20356;-82
2023/05/07 07:58:24;;;;;;;3.40;2.13;;;14.90;34.10;;;;;;5102067;28;20027;-91
2023/05/07 08:00:50;;;;;;;5.80;1.73;;;13.80;34.70;;;;;;5105291;28;20035;-91
2023/05/07 08:03:19;;;;;;;2.65;1.90;;;12.70;35.90;;;;;;5087651;28;20273;-89
2023/05/07 08:05:45;;;;;;;4.28;2.17;;;11.70;37.30;;;;;;5028598;28;20045;-87
2023/05/07 08:08:11;;;;;;;2.88;1.40;;;12.50;38.20;;;;;;5070051;28;20083;-89
2023/05/07 08:10:38;;;;;;;2.00;1.58;;;15.30;36.70;;;;;;5037969;28;20532;-81
2023/05/07 08:13:05;;;;;;;;;;;18.10;32.80;;;;;;5070559;28;20033;-87
2023/05/07 08:15:31;;;;;;;2.60;1.70;;;20.60;32.00;;;;;;5083814;28;20328;-89
2023/05/07 08:17:59;;;;;;;2.08;1.60;;;21.40;29.10;;;;;;5064654;28;20040;-86
2023/05/07 08:20:26;;;;;;;1.92;1.42;;;20.60;28.60;;;;;;5082278;28;20055;-88
2023/05/07 08:22:52;;;;;;;3.80;1.90;;;18.80;29.00;;;;;;5073921;28;20405;-86
2023/05/07 08:25:18;;;;;;;4.80;1.90;;;16.50;30.00;;;;;;5074057;28;20064;-88
2023/05/07 08:27:44;;;;;;;1.90;1.70;;;14.90;31.60;;;;;;5062304;28;20029;-83
2023/05/07 08:30:11;;;;;;;3.77;2.00;;;14.00;33.30;;;;;;5068184;28;20036;-80
2023/05/07 08:32:37;;;;;;;2.22;1.60;;;13.70;34.20;;;;;;5074539;28;20280;-81
2023/05/07 08:35:03;;;;;;;6.97;1.90;;;13.00;35.30;;;;;;5057146;28;20013;-81
2023/05/07 08:37:29;;;;;;;2.78;1.80;;;12.30;36.30;;;;;;5096721;28;20393;-82
2023/05/07 08:39:57;;;;;;;4.78;2.17;;;11.90;37.50;;;;;;5111468;27;20027;-81
2023/05/07 08:42:26;;;;;;;5.47;2.05;;;12.40;37.80;;;;;;5117762;27;20116;-81
2023/05/07 08:44:57;;;;;;;3.05;1.77;;;12.80;36.50;;;;;;5080497;28;20112;-82
2023/05/07 08:47:29;;;;;;;3.85;1.40;;;12.70;36.20;;;;;;5077793;28;20028;-80
2023/05/07 08:49:55;;;;;;;4.85;2.40;;;13.30;35.90;;;;;;5082719;28;20038;-81
2023/05/07 08:52:21;;;;;;;2.03;1.40;;;13.40;35.10;;;;;;5104303;28;20028;-81
2023/05/07 08:54:47;;;;;;;3.50;1.80;;;13.50;34.80;;;;;;5096954;28;20024;-82
2023/05/07 08:57:13;;;;;;;2.55;1.67;;;14.90;34.80;;;;;;5100633;28;20032;-82
2023/05/07 08:59:40;;;;;;;6.57;1.77;;;17.50;32.00;;;;;;5112116;28;20130;-81
2023/05/07 09:02:09;;;;;;;3.08;1.58;;;20.10;30.20;;;;;;5098357;28;20074;-82
2023/05/07 09:04:35;;;;;;;3.63;1.60;;;22.20;28.40;;;;;;5095149;28;20446;-84
2023/05/07 09:07:05;;;;;;;2.80;2.30;;;23.50;27.40;;;;;;5109197;28;20073;-84
2023/05/07 09:09:33;;;;;;;1.65;1.45;;;23.90;26.30;;;;;;5107335;28;20171;-82
2023/05/07 09:12:00;;;;;;;3.85;1.38;;;23.00;25.80;;;;;;5091366;28;20030;-84
2023/05/07 09:14:26;;;;;;;2.40;1.77;;;21.90;26.20;;;;;;5112639;28;20469;-82
2023/05/07 09:16:55;;;;;;;5.00;1.88;;;21.20;26.90;;;;;;5109089;28;20028;-83
2023/05/07 09:19:24;;;;;;;6.53;1.55;;;21.80;26.60;;;;;;5095086;28;20034;-82
2023/05/07 09:22:01;;;;;;;1.92;1.35;;;22.80;26.40;;;;;;5082528;28;20028;-83
2023/05/07 09:24:30;;;;;;;3.38;1.42;;;23.00;26.00;;;;;;5106815;28;20016;-82
2023/05/07 09:26:58;;;;;;;4.45;1.60;;;21.20;26.20;;;;;;5084243;28;20020;-82
2023/05/07 09:29:25;;;;;;;3.28;1.50;;;19.00;27.30;;;;;;5097430;28;20012;-82
2023/05/07 09:31:51;;;;;;;2.70;1.45;;;16.90;29.10;;;;;;5100626;28;20026;-83
2023/05/07 09:34:17;;;;;;;2.33;1.65;;;15.10;29.80;;;;;;5107680;28;20484;-82
2023/05/07 09:36:42;;;;;;;3.08;2.20;;;13.80;31.30;;;;;;5102248;28;20020;-81
2023/05/07 09:39:08;;;;;;;5.25;2.45;;;12.90;32.90;;;;;;5110245;27;20476;-83
2023/05/07 09:41:46;;;;;;;3.50;2.10;;;12.70;34.30;;;;;;5115061;27;20076;-82
2023/05/07 09:44:14;;;;;;;3.20;1.85;;;12.60;33.90;;;;;;5123483;28;20617;-85
2023/05/07 09:46:42;;;;;;;2.55;1.65;;;13.50;34.10;;;;;;5116190;27;20455;-84
2023/05/07 09:49:15;;;;;;;5.80;1.98;;;14.20;32.80;;;;;;5099294;28;20549;-83
2023/05/07 09:51:49;;;;;;;2.75;1.50;;;14.20;32.70;;;;;;5097816;28;20502;-84
2023/05/07 09:54:16;;;;;;;4.78;2.03;;;15.30;32.40;;;;;;5107824;28;20016;-84
2023/05/07 09:56:45;;;;;;;2.95;2.00;;;17.70;30.90;;;;;;5083981;28;20027;-84
2023/05/07 09:59:16;;;;;;;2.92;1.73;;;19.00;29.30;;;;;;5104043;28;20043;-82
2023/05/07 10:01:43;;;;;;;2.58;1.52;;;19.60;28.90;;;;;;5096273;28;20550;-82
2023/05/07 10:04:09;;;;;;;;;;;21.20;27.90;;;;;;5104711;28;20468;-83
2023/05/07 10:06:36;;;;;;;5.88;1.38;;;22.70;27.60;;;;;;5108133;28;19908;-83
2023/05/07 10:09:05;;;;;;;3.77;1.50;;;23.20;26.10;;;;;;5085441;28;20391;-83
2023/05/07 10:11:35;;;;;;;1.60;1.48;;;23.30;25.40;;;;;;5092994;28;20019;-84
2023/05/07 10:14:03;;;;;;;1.52;1.27;;;23.00;25.90;;;;;;5080297;28;20346;-81
2023/05/07 10:16:36;;;;;;;1.65;1.27;;;22.10;25.60;;;;;;5094369;28;20024;-81
2023/05/07 10:19:06;;;;;;;4.57;2.08;;;22.20;25.90;;;;;;5102194;28;20436;-84
2023/05/07 10:21:36;;;;;;;2.83;1.30;;;21.20;26.10;;;;;;5091269;28;20127;-81
2023/05/07 10:24:13;;;;;;;2.53;1.63;;;18.80;27.00;;;;;;5104230;28;20098;-84
2023/05/07 10:26:44;;;;;;;4.75;1.85;;;17.20;28.20;;;;;;5110141;28;20100;-81
2023/05/07 10:29:21;;;;;;;3.60;2.90;;;15.80;29.20;;;;;;5100745;28;20123;-83
2023/05/07 10:32:12;;;;;;;3.85;2.65;;;14.70;30.20;;;;;;5096925;27;20465;-83
2023/05/07 10:34:43;;;;;;;3.03;1.40;;;13.90;31.50;;;;;;5098081;28;20067;-83
2023/05/07 10:37:10;;;;;;;4.20;1.88;;;13.50;31.80;;;;;;5098354;28;20107;-83
2023/05/07 10:39:37;;;;;;;5.57;2.05;;;13.20;32.00;;;;;;5084680;28;20034;-83
2023/05/07 10:42:13;;;;;;;3.67;2.17;;;13.00;32.80;;;;;;5104566;28;20035;-81
2023/05/07 10:44:40;;;;;;;5.63;1.90;;;12.80;32.30;;;;;;5096825;28;20039;-80
2023/05/07 10:47:11;;;;;;;4.32;1.70;;;12.70;32.60;;;;;;5094091;28;20421;-80
2023/05/07 10:50:06;;;;;;;3.15;2.17;;;12.70;32.90;;;;;;5102289;28;20524;-80
2023/05/07 10:52:32;;;;;;;3.10;1.63;;;12.90;33.10;;;;;;5086569;28;20067;-81
2023/05/07 10:55:33;;;;;;;2.53;1.50;;;12.80;33.60;;;;;;5098168;28;20024;-81
2023/05/07 10:58:22;;;;;;;5.65;2.10;;;12.70;33.20;;;;;;5009284;28;20026;-83
2023/05/07 11:00:51;;;;;;;2.25;1.42;;;12.30;33.50;;;;;;5009713;28;20081;-82
2023/05/07 11:03:17;;;;;;;3.08;1.75;;;11.80;34.10;;;;;;5015382;28;20407;-82
2023/05/07 11:05:43;;;;;;;3.22;2.30;;;11.50;34.60;;;;;;5010089;28;20026;-80
2023/05/07 11:08:09;;;;;;;2.67;1.63;;;11.30;35.10;;;;;;5009811;28;20057;-82
2023/05/07 11:10:58;;;;;;;3.40;2.33;;;11.50;34.90;;;;;;5010660;28;20025;-82
2023/05/07 11:13:52;;;;;;;3.78;1.80;;;11.50;34.60;;;;;;5005472;28;20050;-84
2023/05/07 11:16:22;;;;;;;2.72;1.77;;;11.80;35.30;;;;;;5010597;28;20026;-83
2023/05/07 11:18:51;;;;;;;4.20;1.75;;;11.90;35.50;;;;;;4988822;28;20098;-86
2023/05/07 11:21:36;;;;;;;2.13;1.70;;;12.10;35.20;;;;;;5019756;28;20068;-87
2023/05/07 11:24:12;;;;;;;2.30;1.50;;;12.00;34.40;;;;;;5030142;28;20022;-86
2023/05/07 11:26:44;;;;;;;2.88;1.92;;;11.80;34.70;;;;;;5009282;28;20082;-86
2023/05/07 11:29:20;;;;;;;9.18;2.10;;;;;;;;;;4992558;28;20069;-84
2023/05/07 11:31:51;;;;;;;3.50;1.67;;;11.50;34.90;;;;;;5057395;28;20384;-84
2023/05/07 11:34:22;;;;;;;6.10;2.20;;;11.00;35.90;;;;;;5117921;28;20070;-81
2023/05/07 11:36:49;;;;;;;4.68;2.00;;;;;;;;;;5093545;28;20024;-85
2023/05/07 11:39:32;;;;;;;2.95;1.88;;;;;;;;;;5098378;28;20083;-87
2023/05/07 11:41:59;;;;;;;3.53;2.13;;;;;;;;;;5098657;28;20020;-82
2023/05/07 11:44:25;;;;;;;6.70;2.58;;;;;;;;;;5110083;28;20422;-79
2023/05/07 11:46:51;;;;;;;4.95;2.28;;;;;;;;;;5113587;28;20024;-84
2023/05/07 11:49:19;;;;;;;5.53;2.47;;;;;;;;;;5110404;28;20047;-81
2023/05/07 11:51:46;;;;;;;4.05;1.70;;;;;;;;;;5107267;28;20501;-83
2023/05/07 11:54:15;;;;;;;3.38;2.13;;;;;;;;;;5102513;28;20376;-86
2023/05/07 11:56:41;;;;;;;3.92;2.08;;;;;;;;;;5105852;28;20095;-86
2023/05/07 11:59:08;;;;;;;4.72;1.83;;;;;;;;;;5097525;28;20132;-85
2023/05/07 12:01:36;;;;;;;3.45;2.25;;;;;;;;;;5080440;28;20039;-85
2023/05/07 12:04:04;;;;;;;2.53;1.73;;;;;;;;;;5095770;28;20044;-88
2023/05/07 12:06:31;;;;;;;6.55;2.08;;;;;;;;;;5095629;28;20448;-88
2023/05/07 12:08:57;;;;;;;3.13;2.20;;;;;;;;;;5106748;28;20508;-83
2023/05/07 12:11:24;;;;;;;3.85;1.80;;;;;;;;;;5108883;28;20077;-82
2023/05/07 12:13:51;;;;;;;2.95;1.92;;;;;;;;;;5101329;28;20066;-82
2023/05/07 12:16:18;;;;;;;4.75;1.85;;;;;;;;;;5104514;28;20465;-86
2023/05/07 12:18:44;;;;;;;2.70;1.80;;;10.80;36.30;;;;;;5079135;28;20028;-85
2023/05/07 12:21:13;;;;;;;1.77;1.20;;;10.00;38.20;;;;;;5107649;28;20032;-88
2023/05/07 12:23:40;;;;;;;2.55;1.90;;;10.20;37.60;;;;;;5093776;28;20020;-88
2023/05/07 12:26:06;;;;;;;3.13;1.80;;;10.40;37.40;;;;;;5089018;28;20036;-86
2023/05/07 12:28:40;;;;;;;6.18;2.55;;;10.40;37.50;;;;;;5099971;28;20011;-88
2023/05/07 12:31:10;;;;;;;5.50;2.40;;;10.30;37.80;;;;;;5098593;28;20035;-89
2023/05/07 12:33:36;;;;;;;3.78;1.90;;;10.20;37.90;;;;;;5108263;28;20016;-83
2023/05/07 12:36:09;;;;;;;5.25;2.15;;;10.10;38.10;;;;;;5089408;28;20020;-89
2023/05/07 12:38:37;;;;;;;3.10;1.98;;;10.00;38.30;;;;;;5092806;28;20024;-89
2023/05/07 12:41:04;;;;;;;2.53;1.70;;;9.90;38.40;;;;;;5102869;28;20088;-88
2023/05/07 12:43:30;;;;;;;2.85;2.10;;;9.80;37.50;;;;;;5110147;28;20038;-89
2023/05/07 12:46:00;;;;;;;2.65;1.90;;;9.80;38.80;;;;;;5100594;28;20020;-88
2023/05/07 12:48:27;;;;;;;3.00;1.98;;;9.80;38.60;;;;;;5100960;28;20028;-90
2023/05/07 12:50:56;;;;;;;3.42;2.05;;;9.90;38.30;;;;;;5101145;28;20165;-88
2023/05/07 12:53:25;;;;;;;3.30;2.05;;;10.00;37.20;;;;;;5067607;28;20029;-86
2023/05/07 12:55:53;;;;;;;3.45;1.35;;;10.20;37.60;;;;;;5066004;28;20032;-85
2023/05/07 12:58:23;;;;;;;5.20;1.70;;;10.40;37.00;;;;;;5053438;28;20083;-85